createdAt,value
2022-11-10T00:00:20.851Z,1011.7
2022-11-10T00:01:37.055Z,1011.7
2022-11-10T00:02:53.239Z,1011.7
2022-11-10T00:04:09.419Z,1011.7
2022-11-10T00:05:25.551Z,1011.7
2022-11-10T00:06:40.825Z,1011.7
2022-11-10T00:07:57.003Z,1011.7
2022-11-10T00:09:13.199Z,1011.7
2022-11-10T00:10:29.394Z,1011.8
2022-11-10T00:11:45.574Z,1011.8
2022-11-10T00:13:01.771Z,1011.8
2022-11-10T00:14:17.965Z,1011.8
2022-11-10T00:15:34.094Z,1011.8
2022-11-10T00:16:50.339Z,1011.8
2022-11-10T00:18:06.534Z,1011.8
2022-11-10T00:19:22.660Z,1011.8
2022-11-10T00:20:38.854Z,1011.8
2022-11-10T00:21:55.030Z,1011.8
2022-11-10T00:23:10.240Z,1011.9
2022-11-10T00:24:26.471Z,1011.9
2022-11-10T00:25:42.619Z,1011.9
2022-11-10T00:26:58.812Z,1011.9
2022-11-10T00:28:15.034Z,1011.9
2022-11-10T00:29:31.225Z,1011.9
2022-11-10T00:30:47.362Z,1011.9
2022-11-10T00:32:03.555Z,1011.9
2022-11-10T00:33:19.739Z,1011.9
2022-11-10T00:34:35.998Z,1011.9
2022-11-10T00:35:52.187Z,1011.9
2022-11-10T00:37:08.359Z,1011.9
2022-11-10T00:38:24.551Z,1011.9
2022-11-10T00:39:39.706Z,1012
2022-11-10T00:40:55.899Z,1011.9
2022-11-10T00:42:12.134Z,1011.9
2022-11-10T00:43:28.322Z,1011.9
2022-11-10T00:44:44.528Z,1012
2022-11-10T00:46:00.708Z,1011.9
2022-11-10T00:47:16.903Z,1012
2022-11-10T00:48:33.042Z,1011.9
2022-11-10T00:49:49.268Z,1012
2022-11-10T00:51:05.459Z,1012
2022-11-10T00:52:21.650Z,1012
2022-11-10T00:53:37.852Z,1012
2022-11-10T00:54:54.037Z,1012
2022-11-10T00:56:09.232Z,1012
2022-11-10T00:57:25.434Z,1012
2022-11-10T00:58:41.557Z,1012
2022-11-10T00:59:57.813Z,1012.1
2022-11-10T01:01:13.991Z,1012
2022-11-10T01:02:30.114Z,1012.1
2022-11-10T01:03:46.316Z,1012.1
2022-11-10T01:05:02.562Z,1012.1
2022-11-10T01:06:18.759Z,1012.1
2022-11-10T01:07:34.932Z,1012.1
2022-11-10T01:08:51.136Z,1012.2
2022-11-10T01:10:07.318Z,1012.2
2022-11-10T01:11:23.438Z,1012.2
2022-11-10T01:12:38.660Z,1012.2
2022-11-10T01:13:54.892Z,1012.2
2022-11-10T01:15:11.028Z,1012.3
2022-11-10T01:16:27.209Z,1012.2
2022-11-10T01:17:43.478Z,1012.3
2022-11-10T01:18:59.593Z,1012.3
2022-11-10T01:20:15.850Z,1012.3
2022-11-10T01:21:32.043Z,1012.3
2022-11-10T01:22:48.159Z,1012.3
2022-11-10T01:24:04.412Z,1012.2
2022-11-10T01:25:20.608Z,1012.3
2022-11-10T01:26:36.795Z,1012.3
2022-11-10T01:27:52.976Z,1012.3
2022-11-10T01:29:08.189Z,1012.3
2022-11-10T01:30:24.320Z,1012.3
2022-11-10T01:31:40.558Z,1012.3
2022-11-10T01:32:56.762Z,1012.4
2022-11-10T01:34:12.938Z,1012.4
2022-11-10T01:35:29.137Z,1012.3
2022-11-10T01:36:45.311Z,1012.3
2022-11-10T01:38:01.450Z,1012.4
2022-11-10T01:39:17.700Z,1012.4
2022-11-10T01:40:33.815Z,1012.5
2022-11-10T01:41:50.070Z,1012.5
2022-11-10T01:43:06.209Z,1012.5
2022-11-10T01:44:22.455Z,1012.5
2022-11-10T01:45:37.659Z,1012.5
2022-11-10T01:46:53.857Z,1012.5
2022-11-10T01:48:10.042Z,1012.5
2022-11-10T01:49:26.221Z,1012.5
2022-11-10T01:50:42.425Z,1012.6
2022-11-10T01:51:58.606Z,1012.6
2022-11-10T01:53:14.719Z,1012.6
2022-11-10T01:54:30.978Z,1012.6
2022-11-10T01:55:47.178Z,1012.6
2022-11-10T01:57:03.356Z,1012.6
2022-11-10T01:58:19.542Z,1012.6
2022-11-10T01:59:35.740Z,1012.7
2022-11-10T02:00:51.932Z,1012.7
2022-11-10T02:02:07.144Z,1012.7
2022-11-10T02:03:23.330Z,1012.7
2022-11-10T02:04:39.441Z,1012.8
2022-11-10T02:05:55.701Z,1012.7
2022-11-10T02:07:11.819Z,1012.7
2022-11-10T02:08:28.086Z,1012.8
2022-11-10T02:09:44.199Z,1012.8
2022-11-10T02:11:00.456Z,1012.7
2022-11-10T02:12:16.651Z,1012.8
2022-11-10T02:13:32.832Z,1012.8
2022-11-10T02:14:49.044Z,1012.8
2022-11-10T02:16:05.205Z,1012.8
2022-11-10T02:17:21.400Z,1012.8
2022-11-10T02:18:36.535Z,1012.8
2022-11-10T02:19:52.717Z,1012.8
2022-11-10T02:21:08.987Z,1012.8
2022-11-10T02:22:25.182Z,1012.8
2022-11-10T02:23:41.370Z,1012.9
2022-11-10T02:24:57.555Z,1012.8
2022-11-10T02:26:13.751Z,1012.8
2022-11-10T02:27:29.855Z,1012.8
2022-11-10T02:28:46.118Z,1012.8
2022-11-10T02:30:02.312Z,1012.9
2022-11-10T02:31:18.425Z,1012.9
2022-11-10T02:32:34.693Z,1012.9
2022-11-10T02:33:50.879Z,1012.8
2022-11-10T02:35:06.003Z,1012.9
2022-11-10T02:36:22.279Z,1013
2022-11-10T02:37:38.457Z,1013
2022-11-10T02:38:54.651Z,1013
2022-11-10T02:40:10.840Z,1013
2022-11-10T02:41:27.038Z,1013
2022-11-10T02:42:43.209Z,1013
2022-11-10T02:43:59.404Z,1013
2022-11-10T02:45:15.600Z,1013
2022-11-10T02:46:31.794Z,1013
2022-11-10T02:47:47.967Z,1013.1
2022-11-10T02:49:04.159Z,1013.1
2022-11-10T02:50:20.269Z,1013.1
2022-11-10T02:51:35.551Z,1013.1
2022-11-10T02:52:51.744Z,1013.1
2022-11-10T02:54:07.932Z,1013.1
2022-11-10T02:55:24.116Z,1013.1
2022-11-10T02:56:40.311Z,1013.1
2022-11-10T02:57:56.495Z,1013.1
2022-11-10T02:59:12.686Z,1013.1
2022-11-10T03:00:28.788Z,1013.2
2022-11-10T03:01:45.059Z,1013.2
2022-11-10T03:03:01.251Z,1013.3
2022-11-10T03:04:17.450Z,1013.3
2022-11-10T03:05:33.545Z,1013.2
2022-11-10T03:06:49.818Z,1013.3
2022-11-10T03:08:05.032Z,1013.3
2022-11-10T03:09:21.141Z,1013.4
2022-11-10T03:10:37.407Z,1013.4
2022-11-10T03:11:53.605Z,1013.3
2022-11-10T03:13:09.700Z,1013.4
2022-11-10T03:14:25.984Z,1013.4
2022-11-10T03:15:42.174Z,1013.4
2022-11-10T03:16:58.273Z,1013.5
2022-11-10T03:18:14.541Z,1013.5
2022-11-10T03:19:30.635Z,1013.5
2022-11-10T03:20:46.826Z,1013.5
2022-11-10T03:22:03.026Z,1013.6
2022-11-10T03:23:19.308Z,1013.6
2022-11-10T03:24:34.495Z,1013.6
2022-11-10T03:25:50.697Z,1013.7
2022-11-10T03:27:06.892Z,1013.6
2022-11-10T03:28:23.072Z,1013.7
2022-11-10T03:29:39.172Z,1013.7
2022-11-10T03:30:55.450Z,1013.7
2022-11-10T03:32:11.634Z,1013.8
2022-11-10T03:33:27.730Z,1013.8
2022-11-10T03:34:43.934Z,1013.8
2022-11-10T03:36:00.113Z,1013.8
2022-11-10T03:37:16.384Z,1013.8
2022-11-10T03:38:32.577Z,1013.8
2022-11-10T03:39:48.779Z,1013.8
2022-11-10T03:41:03.972Z,1013.8
2022-11-10T03:42:20.165Z,1013.9
2022-11-10T03:43:36.359Z,1013.8
2022-11-10T03:44:52.452Z,1013.9
2022-11-10T03:46:08.727Z,1013.9
2022-11-10T03:47:24.838Z,1013.9
2022-11-10T03:48:41.112Z,1013.8
2022-11-10T03:49:57.301Z,1013.9
2022-11-10T03:51:13.491Z,1013.9
2022-11-10T03:52:29.677Z,1013.9
2022-11-10T03:53:45.875Z,1013.9
2022-11-10T03:55:02.063Z,1013.9
2022-11-10T03:56:18.244Z,1013.9
2022-11-10T03:57:33.458Z,1014
2022-11-10T03:58:49.543Z,1014
2022-11-10T04:00:05.741Z,1014
2022-11-10T04:01:22.013Z,1014
2022-11-10T04:02:38.204Z,1014.1
2022-11-10T04:03:54.390Z,1014
2022-11-10T04:05:09.599Z,1014.1
2022-11-10T04:06:25.687Z,1014.1
2022-11-10T04:07:41.875Z,1014.1
2022-11-10T04:08:58.183Z,1014.1
2022-11-10T04:10:14.358Z,1014
2022-11-10T04:11:30.550Z,1014.1
2022-11-10T04:12:46.638Z,1014.1
2022-11-10T04:14:02.822Z,1014.1
2022-11-10T04:15:19.128Z,1014.1
2022-11-10T04:16:35.307Z,1014
2022-11-10T04:17:51.506Z,1014.1
2022-11-10T04:19:07.680Z,1014.2
2022-11-10T04:20:23.876Z,1014.3
2022-11-10T04:21:39.080Z,1014.3
2022-11-10T04:22:55.276Z,1014.3
2022-11-10T04:24:11.349Z,1014.4
2022-11-10T04:25:27.537Z,1014.3
2022-11-10T04:26:43.842Z,1014.4
2022-11-10T04:28:00.021Z,1014.4
2022-11-10T04:29:16.119Z,1014.4
2022-11-10T04:30:32.408Z,1014.4
2022-11-10T04:31:48.583Z,1014.4
2022-11-10T04:33:04.779Z,1014.5
2022-11-10T04:34:20.976Z,1014.5
2022-11-10T04:35:37.162Z,1014.5
2022-11-10T04:36:53.251Z,1014.5
2022-11-10T04:38:08.553Z,1014.5
2022-11-10T04:39:24.753Z,1014.5
2022-11-10T04:40:40.938Z,1014.5
2022-11-10T04:41:57.112Z,1014.6
2022-11-10T04:43:13.308Z,1014.6
2022-11-10T04:44:29.501Z,1014.6
2022-11-10T04:45:45.695Z,1014.6
2022-11-10T04:47:01.875Z,1014.6
2022-11-10T04:48:18.062Z,1014.6
2022-11-10T04:49:34.259Z,1014.6
2022-11-10T04:50:50.329Z,1014.7
2022-11-10T04:52:06.512Z,1014.6
2022-11-10T04:53:22.703Z,1014.6
2022-11-10T04:54:38.019Z,1014.7
2022-11-10T04:55:54.216Z,1014.7
2022-11-10T04:57:10.415Z,1014.7
2022-11-10T04:58:26.599Z,1014.7
2022-11-10T04:59:42.664Z,1014.8
2022-11-10T05:00:58.971Z,1014.8
2022-11-10T05:02:15.154Z,1014.7
2022-11-10T05:03:31.243Z,1014.8
2022-11-10T05:04:47.425Z,1014.8
2022-11-10T05:06:03.728Z,1014.8
2022-11-10T05:07:19.811Z,1014.8
2022-11-10T05:08:36.102Z,1014.8
2022-11-10T05:09:52.296Z,1014.8
2022-11-10T05:11:07.392Z,1014.8
2022-11-10T05:12:23.569Z,1014.8
2022-11-10T05:13:39.754Z,1014.8
2022-11-10T05:14:55.945Z,1014.9
2022-11-10T05:16:12.138Z,1014.9
2022-11-10T05:17:28.434Z,1014.9
2022-11-10T05:18:44.624Z,1014.9
2022-11-10T05:20:00.811Z,1014.9
2022-11-10T05:21:17.004Z,1014.9
2022-11-10T05:22:33.196Z,1014.9
2022-11-10T05:23:49.379Z,1014.9
2022-11-10T05:25:05.559Z,1014.9
2022-11-10T05:26:21.655Z,1015
2022-11-10T05:27:36.970Z,1015.1
2022-11-10T05:28:53.036Z,1015.1
2022-11-10T05:30:09.225Z,1015.1
2022-11-10T05:31:25.520Z,1015.1
2022-11-10T05:32:41.725Z,1015.1
2022-11-10T05:33:57.914Z,1015.1
2022-11-10T05:35:14.102Z,1015.2
2022-11-10T05:36:30.283Z,1015.2
2022-11-10T05:37:46.368Z,1015.2
2022-11-10T05:39:02.657Z,1015.3
2022-11-10T05:40:18.858Z,1015.3
2022-11-10T05:41:34.936Z,1015.4
2022-11-10T05:42:51.110Z,1015.4
2022-11-10T05:44:06.427Z,1015.4
2022-11-10T05:45:22.518Z,1015.4
2022-11-10T05:46:38.818Z,1015.5
2022-11-10T05:47:54.999Z,1015.6
2022-11-10T05:49:11.183Z,1015.5
2022-11-10T05:50:27.379Z,1015.6
2022-11-10T05:51:43.562Z,1015.6
2022-11-10T05:52:59.644Z,1015.6
2022-11-10T05:54:15.947Z,1015.6
2022-11-10T05:55:32.131Z,1015.7
2022-11-10T05:56:48.320Z,1015.7
2022-11-10T05:58:04.521Z,1015.7
2022-11-10T05:59:20.706Z,1015.7
2022-11-10T06:00:35.913Z,1015.8
2022-11-10T06:01:52.092Z,1015.8
2022-11-10T06:03:08.271Z,1015.9
2022-11-10T06:04:24.464Z,1015.9
2022-11-10T06:05:40.658Z,1015.9
2022-11-10T06:06:56.719Z,1016
2022-11-10T06:08:12.911Z,1016
2022-11-10T06:09:29.104Z,1016
2022-11-10T06:10:45.275Z,1016
2022-11-10T06:12:01.584Z,1016
2022-11-10T06:13:17.780Z,1016
2022-11-10T06:14:33.964Z,1016.1
2022-11-10T06:15:50.025Z,1016
2022-11-10T06:17:05.242Z,1016.1
2022-11-10T06:18:21.542Z,1016.1
2022-11-10T06:19:37.608Z,1016.1
2022-11-10T06:20:53.916Z,1016.2
2022-11-10T06:22:09.984Z,1016.2
2022-11-10T06:23:26.163Z,1016.2
2022-11-10T06:24:42.479Z,1016.2
2022-11-10T06:25:58.540Z,1016.3
2022-11-10T06:27:14.863Z,1016.3
2022-11-10T06:28:30.913Z,1016.3
2022-11-10T06:29:47.227Z,1016.4
2022-11-10T06:31:03.300Z,1016.4
2022-11-10T06:32:19.483Z,1016.5
2022-11-10T06:33:34.807Z,1016.4
2022-11-10T06:34:50.995Z,1016.6
2022-11-10T06:36:07.182Z,1016.6
2022-11-10T06:37:23.240Z,1016.6
2022-11-10T06:38:39.432Z,1016.7
2022-11-10T06:39:55.747Z,1016.7
2022-11-10T06:41:11.932Z,1016.7
2022-11-10T06:42:28.112Z,1016.8
2022-11-10T06:43:44.302Z,1016.8
2022-11-10T06:45:00.375Z,1016.8
2022-11-10T06:46:16.552Z,1016.8
2022-11-10T06:47:32.856Z,1016.8
2022-11-10T06:48:49.000Z,1016.9
2022-11-10T06:50:04.253Z,1016.9
2022-11-10T06:51:20.445Z,1016.9
2022-11-10T06:52:36.636Z,1016.9
2022-11-10T06:53:52.819Z,1016.9
2022-11-10T06:55:08.999Z,1017
2022-11-10T06:56:25.073Z,1017.1
2022-11-10T06:57:41.260Z,1017.1
2022-11-10T06:58:57.440Z,1017.2
2022-11-10T07:00:13.621Z,1017.2
2022-11-10T07:01:29.944Z,1017.2
2022-11-10T07:02:46.132Z,1017.2
2022-11-10T07:04:02.319Z,1017.2
2022-11-10T07:05:18.497Z,1017.3
2022-11-10T07:06:33.717Z,1017.3
2022-11-10T07:07:49.892Z,1017.3
2022-11-10T07:09:05.947Z,1017.3
2022-11-10T07:10:22.149Z,1017.4
2022-11-10T07:11:38.454Z,1017.4
2022-11-10T07:12:54.649Z,1017.4
2022-11-10T07:14:10.830Z,1017.5
2022-11-10T07:15:27.021Z,1017.5
2022-11-10T07:16:43.214Z,1017.5
2022-11-10T07:17:59.395Z,1017.6
2022-11-10T07:19:15.573Z,1017.7
2022-11-10T07:20:31.767Z,1017.6
2022-11-10T07:21:47.954Z,1017.7
2022-11-10T07:23:03.032Z,1017.6
2022-11-10T07:24:19.219Z,1017.7
2022-11-10T07:25:35.396Z,1017.7
2022-11-10T07:26:51.722Z,1017.7
2022-11-10T07:28:07.762Z,1017.7
2022-11-10T07:29:23.958Z,1017.7
2022-11-10T07:30:40.274Z,1017.7
2022-11-10T07:31:56.478Z,1017.8
2022-11-10T07:33:12.654Z,1017.7
2022-11-10T07:34:28.834Z,1017.8
2022-11-10T07:35:44.895Z,1017.8
2022-11-10T07:37:01.074Z,1017.9
2022-11-10T07:38:17.403Z,1017.9
2022-11-10T07:39:32.465Z,1017.9
2022-11-10T07:40:48.797Z,1017.9
2022-11-10T07:42:04.975Z,1017.9
2022-11-10T07:43:21.162Z,1017.9
2022-11-10T07:44:37.212Z,1017.9
2022-11-10T07:45:53.537Z,1017.9
2022-11-10T07:47:09.730Z,1017.9
2022-11-10T07:48:25.786Z,1017.9
2022-11-10T07:49:41.979Z,1018
2022-11-10T07:50:58.304Z,1018
2022-11-10T07:52:14.352Z,1018
2022-11-10T07:53:30.663Z,1018.1
2022-11-10T07:54:46.855Z,1018.1
2022-11-10T07:56:02.068Z,1018.1
2022-11-10T07:57:18.099Z,1018.1
2022-11-10T07:58:34.441Z,1018.2
2022-11-10T07:59:50.482Z,1018.2
2022-11-10T08:01:06.675Z,1018.2
2022-11-10T08:02:22.998Z,1018.2
2022-11-10T08:03:39.183Z,1018.3
2022-11-10T08:04:55.230Z,1018.3
2022-11-10T08:06:11.419Z,1018.3
2022-11-10T08:07:27.603Z,1018.3
2022-11-10T08:08:43.937Z,1018.3
2022-11-10T08:10:00.127Z,1018.3
2022-11-10T08:11:16.168Z,1018.3
2022-11-10T08:12:31.517Z,1018.3
2022-11-10T08:13:47.697Z,1018.4
2022-11-10T08:15:03.881Z,1018.4
2022-11-10T08:16:20.070Z,1018.4
2022-11-10T08:17:36.268Z,1018.4
2022-11-10T08:18:52.454Z,1018.4
2022-11-10T08:20:07.653Z,1018.4
2022-11-10T08:21:23.846Z,1018.4
2022-11-10T08:22:40.036Z,1018.4
2022-11-10T08:23:56.225Z,1018.4
2022-11-10T08:25:12.261Z,1018.4
2022-11-10T08:26:28.596Z,1018.5
2022-11-10T08:27:44.778Z,1018.5
2022-11-10T08:29:00.816Z,1018.5
2022-11-10T08:30:17.151Z,1018.5
2022-11-10T08:31:33.333Z,1018.4
2022-11-10T08:32:49.519Z,1018.5
2022-11-10T08:34:05.725Z,1018.5
2022-11-10T08:35:21.900Z,1018.5
2022-11-10T08:36:37.113Z,1018.5
2022-11-10T08:37:53.290Z,1018.6
2022-11-10T08:39:09.335Z,1018.6
2022-11-10T08:40:25.666Z,1018.5
2022-11-10T08:41:41.857Z,1018.6
2022-11-10T08:42:58.048Z,1018.6
2022-11-10T08:44:14.222Z,1018.6
2022-11-10T08:45:30.263Z,1018.7
2022-11-10T08:46:46.594Z,1018.7
2022-11-10T08:48:02.636Z,1018.8
2022-11-10T08:49:18.972Z,1018.7
2022-11-10T08:50:35.164Z,1018.8
2022-11-10T08:51:51.207Z,1018.8
2022-11-10T08:53:06.564Z,1018.8
2022-11-10T08:54:22.744Z,1018.8
2022-11-10T08:55:38.937Z,1018.9
2022-11-10T08:56:55.114Z,1018.9
2022-11-10T08:58:11.307Z,1018.9
2022-11-10T08:59:27.489Z,1018.9
2022-11-10T09:00:43.675Z,1018.9
2022-11-10T09:01:59.862Z,1019
2022-11-10T09:03:15.903Z,1019
2022-11-10T09:04:32.092Z,1019.1
2022-11-10T09:05:48.434Z,1019
2022-11-10T09:07:04.624Z,1019.1
2022-11-10T09:08:20.637Z,1019.1
2022-11-10T09:09:36.013Z,1019.1
2022-11-10T09:10:52.193Z,1019.1
2022-11-10T09:12:08.373Z,1019.2
2022-11-10T09:13:24.561Z,1019.2
2022-11-10T09:14:40.600Z,1019.2
2022-11-10T09:15:56.947Z,1019.2
2022-11-10T09:17:12.967Z,1019.2
2022-11-10T09:18:29.320Z,1019.3
2022-11-10T09:19:45.496Z,1019.2
2022-11-10T09:21:01.693Z,1019.4
2022-11-10T09:22:17.876Z,1019.4
2022-11-10T09:23:34.068Z,1019.4
2022-11-10T09:24:50.248Z,1019.4
2022-11-10T09:26:05.467Z,1019.4
2022-11-10T09:27:21.646Z,1019.4
2022-11-10T09:28:37.825Z,1019.4
2022-11-10T09:29:53.867Z,1019.3
2022-11-10T09:31:10.214Z,1019.5
2022-11-10T09:32:26.395Z,1019.4
2022-11-10T09:33:42.423Z,1019.3
2022-11-10T09:34:58.762Z,1019.3
2022-11-10T09:36:14.962Z,1019.4
2022-11-10T09:37:30.977Z,1019.4
2022-11-10T09:38:47.324Z,1019.4
2022-11-10T09:40:03.521Z,1019.3
2022-11-10T09:41:19.535Z,1019.4
2022-11-10T09:42:34.919Z,1019.4
2022-11-10T09:43:51.098Z,1019.4
2022-11-10T09:45:07.274Z,1019.4
2022-11-10T09:46:23.309Z,1019.5
2022-11-10T09:47:39.651Z,1019.5
2022-11-10T09:48:55.685Z,1019.5
2022-11-10T09:50:12.024Z,1019.5
2022-11-10T09:51:28.055Z,1019.6
2022-11-10T09:52:44.409Z,1019.5
2022-11-10T09:54:00.592Z,1019.5
2022-11-10T09:55:16.604Z,1019.6
2022-11-10T09:56:32.813Z,1019.6
2022-11-10T09:57:49.161Z,1019.6
2022-11-10T09:59:04.359Z,1019.6
2022-11-10T10:00:20.377Z,1019.5
2022-11-10T10:01:36.743Z,1019.6
2022-11-10T10:02:52.933Z,1019.6
2022-11-10T10:04:08.940Z,1019.6
2022-11-10T10:05:25.307Z,1019.7
2022-11-10T10:06:41.477Z,1019.7
2022-11-10T10:07:57.665Z,1019.6
2022-11-10T10:09:13.869Z,1019.6
2022-11-10T10:10:29.871Z,1019.6
2022-11-10T10:11:46.052Z,1019.6
2022-11-10T10:13:02.414Z,1019.6
2022-11-10T10:14:18.000Z,1019.6
2022-11-10T10:15:33.817Z,1019.6
2022-11-10T10:16:49.995Z,1019.6
2022-11-10T10:18:06.180Z,1019.6
2022-11-10T10:19:22.200Z,1019.6
2022-11-10T10:20:38.384Z,1019.6
2022-11-10T10:21:54.755Z,1019.6
2022-11-10T10:23:10.758Z,1019.6
2022-11-10T10:24:26.000Z,1019.5
2022-11-10T10:25:43.327Z,1019.6
2022-11-10T10:26:59.490Z,1019.6
2022-11-10T10:28:15.676Z,1019.6
2022-11-10T10:29:31.873Z,1019.6
2022-11-10T10:30:48.057Z,1019.6
2022-11-10T10:32:03.271Z,1019.6
2022-11-10T10:33:19.273Z,1019.6
2022-11-10T10:34:35.453Z,1019.7
2022-11-10T10:35:51.658Z,1019.6
2022-11-10T10:37:08.019Z,1019.6
2022-11-10T10:38:24.203Z,1019.7
2022-11-10T10:39:40.220Z,1019.6
2022-11-10T10:40:56.584Z,1019.6
2022-11-10T10:42:12.769Z,1019.6
2022-11-10T10:43:28.767Z,1019.7
2022-11-10T10:44:45.000Z,1019.7
2022-11-10T10:46:01.134Z,1019.6
2022-11-10T10:47:17.514Z,1019.7
2022-11-10T10:48:32.708Z,1019.7
2022-11-10T10:49:48.731Z,1019.7
2022-11-10T10:51:05.099Z,1019.7
2022-11-10T10:52:21.287Z,1019.7
2022-11-10T10:53:37.462Z,1019.7
2022-11-10T10:54:53.655Z,1019.8
2022-11-10T10:56:09.664Z,1019.7
2022-11-10T10:57:26.030Z,1019.8
2022-11-10T10:58:42.223Z,1019.8
2022-11-10T10:59:58.402Z,1019.9
2022-11-10T11:01:14.588Z,1019.8
2022-11-10T11:02:30.583Z,1019.8
2022-11-10T11:03:46.964Z,1019.8
2022-11-10T11:05:02.167Z,1019.9
2022-11-10T11:06:18.179Z,1019.8
2022-11-10T11:07:34.352Z,1019.8
2022-11-10T11:08:50.552Z,1019.8
2022-11-10T11:10:06.727Z,1019.8
2022-11-10T11:11:22.920Z,1019.9
2022-11-10T11:12:39.098Z,1019.9
2022-11-10T11:13:55.476Z,1019.9
2022-11-10T11:15:11.667Z,1019.8
2022-11-10T11:16:27.863Z,1019.8
2022-11-10T11:17:44.044Z,1019.8
2022-11-10T11:19:00.218Z,1019.9
2022-11-10T11:20:16.232Z,1019.8
2022-11-10T11:21:31.615Z,1019.8
2022-11-10T11:22:47.612Z,1019.8
2022-11-10T11:24:03.812Z,1019.8
2022-11-10T11:25:19.995Z,1019.8
2022-11-10T11:26:36.365Z,1019.9
2022-11-10T11:27:52.371Z,1019.8
2022-11-10T11:29:08.749Z,1019.9
2022-11-10T11:30:24.934Z,1019.9
2022-11-10T11:31:40.930Z,1019.9
2022-11-10T11:32:57.309Z,1019.9
2022-11-10T11:34:13.502Z,1019.8
2022-11-10T11:35:29.497Z,1019.8
2022-11-10T11:36:45.674Z,1019.8
2022-11-10T11:38:01.070Z,1019.8
2022-11-10T11:39:17.258Z,1019.8
2022-11-10T11:40:33.437Z,1019.8
2022-11-10T11:41:49.441Z,1019.8
2022-11-10T11:43:05.636Z,1019.7
2022-11-10T11:44:21.805Z,1019.8
2022-11-10T11:45:38.197Z,1019.9
2022-11-10T11:46:54.383Z,1019.9
2022-11-10T11:48:10.386Z,1019.8
2022-11-10T11:49:26.559Z,1019.8
2022-11-10T11:50:42.948Z,1019.8
2022-11-10T11:51:59.124Z,1019.8
2022-11-10T11:53:15.328Z,1019.8
2022-11-10T11:54:30.531Z,1019.8
2022-11-10T11:55:46.710Z,1019.8
2022-11-10T11:57:02.902Z,1019.9
2022-11-10T11:58:18.878Z,1019.9
2022-11-10T11:59:35.271Z,1019.9
2022-11-10T12:00:51.466Z,1019.9
2022-11-10T12:02:07.453Z,1019.8
2022-11-10T12:03:23.836Z,1019.8
2022-11-10T12:04:39.816Z,1019.9
2022-11-10T12:05:56.019Z,1019.9
2022-11-10T12:07:12.391Z,1019.9
2022-11-10T12:08:28.575Z,1019.8
2022-11-10T12:09:44.781Z,1019.9
2022-11-10T12:10:59.977Z,1019.8
2022-11-10T12:12:16.165Z,1019.9
2022-11-10T12:13:32.157Z,1019.9
2022-11-10T12:14:48.340Z,1019.8
2022-11-10T12:16:04.716Z,1019.9
2022-11-10T12:17:20.914Z,1019.8
2022-11-10T12:18:37.103Z,1019.9
2022-11-10T12:19:53.287Z,1019.9
2022-11-10T12:21:09.272Z,1019.9
2022-11-10T12:22:25.651Z,1019.9
2022-11-10T12:23:41.651Z,1020
2022-11-10T12:24:57.836Z,1019.9
2022-11-10T12:26:14.227Z,1019.9
2022-11-10T12:27:29.215Z,1020
2022-11-10T12:28:45.617Z,1020.1
2022-11-10T12:30:01.798Z,1020
2022-11-10T12:31:17.993Z,1020
2022-11-10T12:32:34.176Z,1020
2022-11-10T12:33:50.362Z,1020.1
2022-11-10T12:35:05.564Z,1020.1
2022-11-10T12:36:21.565Z,1020.1
2022-11-10T12:37:37.958Z,1020.1
2022-11-10T12:38:54.136Z,1020.1
2022-11-10T12:40:10.316Z,1020.2
2022-11-10T12:41:26.511Z,1020.2
2022-11-10T12:42:42.696Z,1020.2
2022-11-10T12:43:58.674Z,1020.3
2022-11-10T12:45:15.079Z,1020.3
2022-11-10T12:46:31.260Z,1020.3
2022-11-10T12:47:47.246Z,1020.3
2022-11-10T12:49:03.643Z,1020.3
2022-11-10T12:50:19.823Z,1020.3
2022-11-10T12:51:34.814Z,1020.3
2022-11-10T12:52:51.012Z,1020.3
2022-11-10T12:54:07.409Z,1020.3
2022-11-10T12:55:23.586Z,1020.4
2022-11-10T12:56:39.783Z,1020.4
2022-11-10T12:57:55.959Z,1020.4
2022-11-10T12:59:12.153Z,1020.5
2022-11-10T13:00:28.127Z,1020.5
2022-11-10T13:01:44.513Z,1020.5
2022-11-10T13:03:00.491Z,1020.5
2022-11-10T13:04:16.893Z,1020.5
2022-11-10T13:05:33.086Z,1020.5
2022-11-10T13:06:49.282Z,1020.5
2022-11-10T13:08:04.473Z,1020.5
2022-11-10T13:09:20.668Z,1020.5
2022-11-10T13:10:36.634Z,1020.4
2022-11-10T13:11:53.031Z,1020.5
2022-11-10T13:13:09.226Z,1020.5
2022-11-10T13:14:25.193Z,1020.5
2022-11-10T13:15:41.592Z,1020.6
2022-11-10T13:16:57.789Z,1020.6
2022-11-10T13:18:13.766Z,1020.5
2022-11-10T13:19:29.953Z,1020.6
2022-11-10T13:20:46.344Z,1020.6
2022-11-10T13:22:02.319Z,1020.6
2022-11-10T13:23:18.509Z,1020.5
2022-11-10T13:24:33.936Z,1020.6
2022-11-10T13:25:50.106Z,1020.7
2022-11-10T13:27:06.291Z,1020.6
2022-11-10T13:28:22.498Z,1020.6
2022-11-10T13:30:54.858Z,1020.5
2022-11-10T13:32:11.046Z,1020.6
2022-11-10T13:33:27.229Z,1020.6
2022-11-10T13:34:43.203Z,1020.6
2022-11-10T13:35:59.604Z,1020.7
2022-11-10T13:37:15.799Z,1020.7
2022-11-10T13:38:31.766Z,1020.7
2022-11-10T13:39:48.167Z,1020.6
2022-11-10T13:41:03.368Z,1020.7
2022-11-10T13:42:19.347Z,1020.7
2022-11-10T13:43:35.756Z,1020.7
2022-11-10T13:44:51.941Z,1020.6
2022-11-10T13:46:08.134Z,1020.6
2022-11-10T13:47:24.320Z,1020.7
2022-11-10T13:48:40.508Z,1020.7
2022-11-10T13:49:56.680Z,1020.7
2022-11-10T13:51:12.645Z,1020.7
2022-11-10T13:52:29.067Z,1020.8
2022-11-10T13:53:45.253Z,1020.8
2022-11-10T13:55:01.433Z,1020.9
2022-11-10T13:56:17.402Z,1020.8
2022-11-10T13:57:32.597Z,1020.8
2022-11-10T13:58:49.010Z,1020.8
2022-11-10T14:00:04.970Z,1020.9
2022-11-10T14:01:21.393Z,1020.8
2022-11-10T14:02:37.586Z,1020.9
2022-11-10T14:03:53.767Z,1020.8
2022-11-10T14:05:09.953Z,1020.9
2022-11-10T14:06:25.917Z,1020.9
2022-11-10T14:07:42.329Z,1020.9
2022-11-10T14:08:58.523Z,1021
2022-11-10T14:10:14.702Z,1021
2022-11-10T14:11:30.887Z,1021
2022-11-10T14:12:46.860Z,1021
2022-11-10T14:14:02.273Z,1021.1
2022-11-10T14:15:18.472Z,1021.1
2022-11-10T14:16:34.425Z,1021.1
2022-11-10T14:17:50.844Z,1021.1
2022-11-10T14:19:06.802Z,1021.2
2022-11-10T14:20:22.982Z,1021.2
2022-11-10T14:21:39.404Z,1021.1
2022-11-10T14:22:55.352Z,1021.1
2022-11-10T14:24:11.786Z,1021.1
2022-11-10T14:25:27.964Z,1021.1
2022-11-10T14:26:44.156Z,1021.1
2022-11-10T14:28:00.330Z,1021.1
2022-11-10T14:29:16.524Z,1021.1
2022-11-10T14:30:31.729Z,1021.1
2022-11-10T14:31:47.921Z,1021.3
2022-11-10T14:33:03.000Z,1021.3
2022-11-10T14:34:20.054Z,1021.3
2022-11-10T14:35:36.480Z,1021.3
2022-11-10T14:36:52.671Z,1021.3
2022-11-10T14:38:08.618Z,1021.3
2022-11-10T14:39:25.038Z,1021.4
2022-11-10T14:40:41.225Z,1021.4
2022-11-10T14:41:57.183Z,1021.4
2022-11-10T14:43:13.606Z,1021.4
2022-11-10T14:44:29.787Z,1021.3
2022-11-10T14:45:45.749Z,1021.3
2022-11-10T14:47:01.175Z,1021.4
2022-11-10T14:48:17.125Z,1021.3
2022-11-10T14:49:33.560Z,1021.5
2022-11-10T14:50:49.751Z,1021.5
2022-11-10T14:52:05.921Z,1021.5
2022-11-10T14:53:21.878Z,1021.6
2022-11-10T14:54:38.309Z,1021.6
2022-11-10T14:55:54.497Z,1021.7
2022-11-10T14:57:10.435Z,1021.7
2022-11-10T14:58:26.628Z,1021.7
2022-11-10T14:59:42.822Z,1021.7
2022-11-10T15:00:59.234Z,1021.7
2022-11-10T15:02:15.000Z,1021.6
2022-11-10T15:03:30.627Z,1021.7
2022-11-10T15:04:46.811Z,1021.8
2022-11-10T15:06:03.014Z,1021.8
2022-11-10T15:07:19.199Z,1021.8
2022-11-10T15:08:35.385Z,1021.7
2022-11-10T15:09:51.572Z,1021.8
2022-11-10T15:11:07.749Z,1021.8
2022-11-10T15:12:23.933Z,1021.9
2022-11-10T15:13:40.126Z,1021.8
2022-11-10T15:14:56.325Z,1021.9
2022-11-10T15:16:12.262Z,1021.8
2022-11-10T15:17:28.700Z,1021.8
2022-11-10T15:18:44.886Z,1022
2022-11-10T15:20:00.083Z,1021.9
2022-11-10T15:21:16.262Z,1021.9
2022-11-10T15:22:32.461Z,1021.9
2022-11-10T15:23:48.647Z,1022
2022-11-10T15:25:04.828Z,1021.9
2022-11-10T15:26:21.021Z,1022
2022-11-10T15:27:37.211Z,1022.1
2022-11-10T15:28:53.388Z,1022
2022-11-10T15:30:09.573Z,1022
2022-11-10T15:31:25.527Z,1022.1
2022-11-10T15:32:41.959Z,1022
2022-11-10T15:33:58.142Z,1022
2022-11-10T15:35:14.327Z,1022.1
2022-11-10T15:36:29.538Z,1022.1
2022-11-10T15:37:45.485Z,1022.1
2022-11-10T15:39:01.659Z,1022.2
2022-11-10T15:40:17.867Z,1022.2
2022-11-10T15:41:34.045Z,1022.1
2022-11-10T15:42:50.482Z,1022.2
2022-11-10T15:44:06.665Z,1022.2
2022-11-10T15:45:22.863Z,1022.1
2022-11-10T15:46:38.804Z,1022.2
2022-11-10T15:47:55.243Z,1022.2
2022-11-10T15:49:11.420Z,1022.2
2022-11-10T15:50:27.368Z,1022.2
2022-11-10T15:51:43.546Z,1022.3
2022-11-10T15:52:59.018Z,1022.2
2022-11-10T15:54:15.192Z,1022.3
2022-11-10T15:55:31.389Z,1022.3